sensor_id;sensor_type;location;lat;lon;timestamp;pressure;altitude;pressure_sealevel;temperature;humidity
74778;BME280;63298;53.164;8.610;2023-12-20T03:17:09;101140.47;;;6.28;87.28
74778;BME280;63298;53.164;8.610;2023-12-20T03:19:34;101139.44;;;6.29;87.43
74778;BME280;63298;53.164;8.610;2023-12-20T03:22:00;101138.38;;;6.30;87.52
74778;BME280;63298;53.164;8.610;2023-12-20T03:24:25;101134.38;;;6.33;87.35
74778;BME280;63298;53.164;8.610;2023-12-20T03:26:50;101143.44;;;6.33;87.50
74778;BME280;63298;53.164;8.610;2023-12-20T03:29:18;101141.78;;;6.39;86.85
74778;BME280;63298;53.164;8.610;2023-12-20T03:31:43;101137.16;;;6.39;86.98
74778;BME280;63298;53.164;8.610;2023-12-20T03:34:11;101132.72;;;6.38;87.44
74778;BME280;63298;53.164;8.610;2023-12-20T03:36:37;101128.53;;;6.42;87.08
74778;BME280;63298;53.164;8.610;2023-12-20T03:39:02;101117.78;;;6.41;87.07
74778;BME280;63298;53.164;8.610;2023-12-20T03:41:28;101114.19;;;6.40;87.32
74778;BME280;63298;53.164;8.610;2023-12-20T03:43:53;101120.53;;;6.41;87.50
74778;BME280;63298;53.164;8.610;2023-12-20T03:46:24;101105.97;;;6.40;87.26
74778;BME280;63298;53.164;8.610;2023-12-20T03:48:50;101101.53;;;6.39;86.99
74778;BME280;63298;53.164;8.610;2023-12-20T03:51:15;101104.53;;;6.44;87.72
74778;BME280;63298;53.164;8.610;2023-12-20T03:53:40;101099.03;;;6.44;86.72
74778;BME280;63298;53.164;8.610;2023-12-20T03:56:06;101103.25;;;6.47;87.06
74778;BME280;63298;53.164;8.610;2023-12-20T03:58:31;101098.63;;;6.41;86.98
74778;BME280;63298;53.164;8.610;2023-12-20T04:00:56;101091.22;;;6.41;87.37
74778;BME280;63298;53.164;8.610;2023-12-20T04:03:22;101094.19;;;6.46;87.16
74778;BME280;63298;53.164;8.610;2023-12-20T04:05:47;101088.09;;;6.44;87.48
74778;BME280;63298;53.164;8.610;2023-12-20T04:08:12;101096.50;;;6.43;86.82
74778;BME280;63298;53.164;8.610;2023-12-20T04:10:38;101089.13;;;6.43;87.52
74778;BME280;63298;53.164;8.610;2023-12-20T04:13:09;101083.44;;;6.45;87.59
74778;BME280;63298;53.164;8.610;2023-12-20T04:15:34;101081.94;;;6.42;87.18
74778;BME280;63298;53.164;8.610;2023-12-20T04:18:03;101073.94;;;6.41;87.24
74778;BME280;63298;53.164;8.610;2023-12-20T04:20:32;101082.78;;;6.43;86.71
74778;BME280;63298;53.164;8.610;2023-12-20T04:22:58;101077.97;;;6.45;86.80
74778;BME280;63298;53.164;8.610;2023-12-20T04:25:24;101074.56;;;6.36;86.71
74778;BME280;63298;53.164;8.610;2023-12-20T04:27:50;101084.50;;;6.44;87.24
74778;BME280;63298;53.164;8.610;2023-12-20T04:30:15;101082.59;;;6.44;86.98
74778;BME280;63298;53.164;8.610;2023-12-20T04:32:41;101075.41;;;6.43;86.37
74778;BME280;63298;53.164;8.610;2023-12-20T04:35:06;101081.31;;;6.40;87.05
74778;BME280;63298;53.164;8.610;2023-12-20T04:37:31;101079.38;;;6.34;86.91
74778;BME280;63298;53.164;8.610;2023-12-20T04:39:57;101074.34;;;6.38;86.47
74778;BME280;63298;53.164;8.610;2023-12-20T04:42:22;101063.81;;;6.35;86.89
74778;BME280;63298;53.164;8.610;2023-12-20T04:44:50;101067.38;;;6.35;86.84
74778;BME280;63298;53.164;8.610;2023-12-20T04:47:15;101068.66;;;6.39;86.58
74778;BME280;63298;53.164;8.610;2023-12-20T04:49:40;101066.13;;;6.31;86.63
74778;BME280;63298;53.164;8.610;2023-12-20T04:52:09;101073.50;;;6.37;87.16
74778;BME280;63298;53.164;8.610;2023-12-20T04:54:34;101075.38;;;6.37;87.20
74778;BME280;63298;53.164;8.610;2023-12-20T04:56:59;101059.19;;;6.42;86.56
74778;BME280;63298;53.164;8.610;2023-12-20T04:59:25;101049.50;;;6.39;86.54
74778;BME280;63298;53.164;8.610;2023-12-20T05:01:50;101053.69;;;6.35;86.41
74778;BME280;63298;53.164;8.610;2023-12-20T05:04:16;101054.53;;;6.42;86.40
74778;BME280;63298;53.164;8.610;2023-12-20T05:06:41;101053.50;;;6.43;86.32
74778;BME280;63298;53.164;8.610;2023-12-20T05:09:15;101049.06;;;6.36;86.56
74778;BME280;63298;53.164;8.610;2023-12-20T05:11:40;101050.34;;;6.40;87.30
74778;BME280;63298;53.164;8.610;2023-12-20T05:14:06;101056.03;;;6.45;87.19
74778;BME280;63298;53.164;8.610;2023-12-20T05:16:31;101049.72;;;6.44;87.36
74778;BME280;63298;53.164;8.610;2023-12-20T05:18:57;101054.78;;;6.41;86.94
74778;BME280;63298;53.164;8.610;2023-12-20T05:21:22;101055.44;;;6.49;86.88
74778;BME280;63298;53.164;8.610;2023-12-20T05:23:47;101050.56;;;6.45;87.02
74778;BME280;63298;53.164;8.610;2023-12-20T05:26:15;101046.97;;;6.44;87.39
74778;BME280;63298;53.164;8.610;2023-12-20T05:28:40;101052.66;;;6.43;87.50
74778;BME280;63298;53.164;8.610;2023-12-20T05:31:08;101040.66;;;6.44;87.21
74778;BME280;63298;53.164;8.610;2023-12-20T05:33:35;101044.25;;;6.44;86.98
74778;BME280;63298;53.164;8.610;2023-12-20T05:36:00;101045.72;;;6.47;86.55
74778;BME280;63298;53.164;8.610;2023-12-20T05:38:26;101041.06;;;6.47;87.07
74778;BME280;63298;53.164;8.610;2023-12-20T05:40:51;101046.16;;;6.57;86.89
74778;BME280;63298;53.164;8.610;2023-12-20T05:43:17;101051.22;;;6.54;86.72
74778;BME280;63298;53.164;8.610;2023-12-20T05:45:42;101047.00;;;6.58;86.49
74778;BME280;63298;53.164;8.610;2023-12-20T05:48:10;101045.09;;;6.51;86.24
74778;BME280;63298;53.164;8.610;2023-12-20T05:50:36;101045.09;;;6.51;86.69
74778;BME280;63298;53.164;8.610;2023-12-20T05:53:02;101039.00;;;6.49;86.66
74778;BME280;63298;53.164;8.610;2023-12-20T05:55:27;101026.56;;;6.54;86.92
74778;BME280;63298;53.164;8.610;2023-12-20T05:57:52;101025.09;;;6.58;86.81
74778;BME280;63298;53.164;8.610;2023-12-20T06:00:18;101014.94;;;6.51;87.02
74778;BME280;63298;53.164;8.610;2023-12-20T06:02:44;101028.88;;;6.57;86.56
74778;BME280;63298;53.164;8.610;2023-12-20T06:05:09;101023.41;;;6.57;87.09
74778;BME280;63298;53.164;8.610;2023-12-20T06:07:34;101035.63;;;6.54;86.93
74778;BME280;63298;53.164;8.610;2023-12-20T06:10:00;101028.25;;;6.55;87.20
74778;BME280;63298;53.164;8.610;2023-12-20T06:12:25;101025.69;;;6.46;86.71
74778;BME280;63298;53.164;8.610;2023-12-20T06:14:51;101020.84;;;6.48;86.58
74778;BME280;63298;53.164;8.610;2023-12-20T06:17:16;101011.59;;;6.49;85.98
74778;BME280;63298;53.164;8.610;2023-12-20T06:19:41;101019.16;;;6.47;86.46
74778;BME280;63298;53.164;8.610;2023-12-20T06:22:07;101016.44;;;6.54;87.06
74778;BME280;63298;53.164;8.610;2023-12-20T06:24:32;101015.84;;;6.65;86.71
74778;BME280;63298;53.164;8.610;2023-12-20T06:26:57;101011.84;;;6.68;86.66
74778;BME280;63298;53.164;8.610;2023-12-20T06:29:23;101005.97;;;6.71;86.41
74778;BME280;63298;53.164;8.610;2023-12-20T06:31:48;100999.41;;;6.72;86.69
74778;BME280;63298;53.164;8.610;2023-12-20T06:34:16;100996.03;;;6.76;86.45
74778;BME280;63298;53.164;8.610;2023-12-20T06:36:41;100980.00;;;6.73;86.07
74778;BME280;63298;53.164;8.610;2023-12-20T06:39:07;100983.81;;;6.79;85.96
74778;BME280;63298;53.164;8.610;2023-12-20T06:41:32;100989.09;;;6.80;86.48
74778;BME280;63298;53.164;8.610;2023-12-20T06:43:58;100974.31;;;6.81;85.98
74778;BME280;63298;53.164;8.610;2023-12-20T06:46:23;100970.72;;;6.81;85.97
74778;BME280;63298;53.164;8.610;2023-12-20T06:48:48;100982.31;;;6.76;86.11
74778;BME280;63298;53.164;8.610;2023-12-20T06:51:17;100977.91;;;6.69;86.11
74778;BME280;63298;53.164;8.610;2023-12-20T06:53:43;100968.19;;;6.73;86.01
74778;BME280;63298;53.164;8.610;2023-12-20T06:56:12;100967.75;;;6.63;87.03
74778;BME280;63298;53.164;8.610;2023-12-20T06:58:37;100974.50;;;6.67;86.75
74778;BME280;63298;53.164;8.610;2023-12-20T07:01:03;100969.44;;;6.64;87.34
74778;BME280;63298;53.164;8.610;2023-12-20T07:03:28;100975.81;;;6.71;87.38
74778;BME280;63298;53.164;8.610;2023-12-20T07:05:53;100973.69;;;6.73;87.21
74778;BME280;63298;53.164;8.610;2023-12-20T07:08:19;100966.72;;;6.77;86.32
74778;BME280;63298;53.164;8.610;2023-12-20T07:10:44;100977.06;;;6.75;86.47
74778;BME280;63298;53.164;8.610;2023-12-20T07:13:09;100966.50;;;6.72;86.74
74778;BME280;63298;53.164;8.610;2023-12-20T07:15:35;100970.09;;;6.79;86.66
74778;BME280;63298;53.164;8.610;2023-12-20T07:18:00;100953.66;;;6.79;86.53
74778;BME280;63298;53.164;8.610;2023-12-20T07:20:25;100958.50;;;6.83;86.27
74778;BME280;63298;53.164;8.610;2023-12-20T07:22:51;100958.50;;;6.83;86.32
74778;BME280;63298;53.164;8.610;2023-12-20T07:25:16;100968.66;;;6.89;86.49
74778;BME280;63298;53.164;8.610;2023-12-20T07:27:44;100956.84;;;6.76;87.01
74778;BME280;63298;53.164;8.610;2023-12-20T07:30:13;100955.13;;;6.81;86.41
74778;BME280;63298;53.164;8.610;2023-12-20T07:32:38;100943.97;;;6.83;87.01
74778;BME280;63298;53.164;8.610;2023-12-20T07:35:11;100959.16;;;6.79;87.11
74778;BME280;63298;53.164;8.610;2023-12-20T07:37:36;100954.72;;;6.78;87.55
74778;BME280;63298;53.164;8.610;2023-12-20T07:40:05;100963.16;;;6.83;87.15
74778;BME280;63298;53.164;8.610;2023-12-20T07:42:30;100949.44;;;6.83;87.31
74778;BME280;63298;53.164;8.610;2023-12-20T07:44:59;100952.41;;;6.88;87.00
74778;BME280;63298;53.164;8.610;2023-12-20T07:47:26;100935.31;;;6.79;87.23
74778;BME280;63298;53.164;8.610;2023-12-20T07:50:00;100937.44;;;6.84;87.47
74778;BME280;63298;53.164;8.610;2023-12-20T07:52:27;100934.25;;;6.87;87.27
74778;BME280;63298;53.164;8.610;2023-12-20T07:54:53;100930.25;;;6.89;87.36
74778;BME280;63298;53.164;8.610;2023-12-20T07:57:21;100926.03;;;6.87;87.69
74778;BME280;63298;53.164;8.610;2023-12-20T07:59:46;100913.59;;;6.84;87.07
74778;BME280;63298;53.164;8.610;2023-12-20T08:02:19;100919.06;;;6.91;87.42
74778;BME280;63298;53.164;8.610;2023-12-20T08:04:44;100916.31;;;6.98;86.94
74778;BME280;63298;53.164;8.610;2023-12-20T08:07:10;100908.75;;;7.00;86.95
74778;BME280;63298;53.164;8.610;2023-12-20T08:09:35;100915.47;;;6.97;87.25
74778;BME280;63298;53.164;8.610;2023-12-20T08:12:04;100934.28;;;7.00;87.54
74778;BME280;63298;53.164;8.610;2023-12-20T08:14:29;100917.16;;;6.98;87.65
74778;BME280;63298;53.164;8.610;2023-12-20T08:16:54;100922.00;;;7.03;87.73
74778;BME280;63298;53.164;8.610;2023-12-20T08:19:20;100912.94;;;7.02;87.16
74778;BME280;63298;53.164;8.610;2023-12-20T08:21:45;100910.00;;;6.97;88.05
74778;BME280;63298;53.164;8.610;2023-12-20T08:24:10;100899.03;;;6.97;87.26
74778;BME280;63298;53.164;8.610;2023-12-20T08:26:38;100915.88;;;7.01;87.50
74778;BME280;63298;53.164;8.610;2023-12-20T08:29:06;100909.78;;;7.05;87.43
74778;BME280;63298;53.164;8.610;2023-12-20T08:31:35;100905.13;;;7.06;87.63
74778;BME280;63298;53.164;8.610;2023-12-20T08:34:04;100887.66;;;7.00;87.78
74778;BME280;63298;53.164;8.610;2023-12-20T08:36:33;100904.72;;;7.02;87.77
74778;BME280;63298;53.164;8.610;2023-12-20T08:38:58;100881.09;;;6.88;88.47
74778;BME280;63298;53.164;8.610;2023-12-20T08:41:26;100883.84;;;6.94;88.62
74778;BME280;63298;53.164;8.610;2023-12-20T08:43:52;100896.28;;;7.10;88.47
74778;BME280;63298;53.164;8.610;2023-12-20T08:46:17;100887.81;;;7.12;87.77
74778;BME280;63298;53.164;8.610;2023-12-20T08:48:42;100880.25;;;7.07;88.61
74778;BME280;63298;53.164;8.610;2023-12-20T08:51:10;100872.84;;;7.08;88.81
74778;BME280;63298;53.164;8.610;2023-12-20T08:53:38;100880.44;;;7.12;88.61
74778;BME280;63298;53.164;8.610;2023-12-20T08:56:04;100876.88;;;7.05;88.98
74778;BME280;63298;53.164;8.610;2023-12-20T08:58:31;100881.53;;;7.05;88.37
74778;BME280;63298;53.164;8.610;2023-12-20T09:00:57;100869.47;;;7.06;88.75
74778;BME280;63298;53.164;8.610;2023-12-20T09:03:25;100876.25;;;7.03;88.01
74778;BME280;63298;53.164;8.610;2023-12-20T09:05:50;100870.31;;;7.13;88.29
74778;BME280;63298;53.164;8.610;2023-12-20T09:08:16;100884.66;;;7.15;88.23
74778;BME280;63298;53.164;8.610;2023-12-20T09:10:41;100889.72;;;7.18;88.56
74778;BME280;63298;53.164;8.610;2023-12-20T09:13:06;100881.09;;;7.14;88.10
74778;BME280;63298;53.164;8.610;2023-12-20T09:15:32;100868.63;;;7.12;88.19
74778;BME280;63298;53.164;8.610;2023-12-20T09:18:00;100882.53;;;7.17;88.56
74778;BME280;63298;53.164;8.610;2023-12-20T09:20:25;100891.22;;;7.07;88.66
74778;BME280;63298;53.164;8.610;2023-12-20T09:22:51;100891.81;;;7.16;88.61
74778;BME280;63298;53.164;8.610;2023-12-20T09:25:19;100878.34;;;7.14;88.21
74778;BME280;63298;53.164;8.610;2023-12-20T09:27:44;100898.16;;;7.23;88.05
74778;BME280;63298;53.164;8.610;2023-12-20T09:30:13;100935.72;;;7.22;88.44
74778;BME280;63298;53.164;8.610;2023-12-20T09:32:41;100966.53;;;7.24;88.87
74778;BME280;63298;53.164;8.610;2023-12-20T09:35:07;100995.44;;;7.07;87.09
74778;BME280;63298;53.164;8.610;2023-12-20T09:37:35;100963.34;;;7.01;87.66
74778;BME280;63298;53.164;8.610;2023-12-20T09:40:00;100966.09;;;6.75;86.19
74778;BME280;63298;53.164;8.610;2023-12-20T09:45:26;100946.03;;;6.68;85.69
74778;BME280;63298;53.164;8.610;2023-12-20T09:47:53;100953.44;;;6.61;85.69
74778;BME280;63298;53.164;8.610;2023-12-20T09:50:22;100940.97;;;6.58;85.45
74778;BME280;63298;53.164;8.610;2023-12-20T09:52:51;100946.25;;;6.53;85.33
74778;BME280;63298;53.164;8.610;2023-12-20T09:55:18;100940.78;;;6.60;86.04
74778;BME280;63298;53.164;8.610;2023-12-20T09:57:43;100938.88;;;6.60;86.13
74778;BME280;63298;53.164;8.610;2023-12-20T10:00:09;100949.41;;;6.63;86.40
74778;BME280;63298;53.164;8.610;2023-12-20T10:02:50;100950.03;;;6.59;86.56
74778;BME280;63298;53.164;8.610;2023-12-20T10:05:29;100939.28;;;6.50;86.15
74778;BME280;63298;53.164;8.610;2023-12-20T10:08:05;100952.59;;;6.60;85.96
74778;BME280;63298;53.164;8.610;2023-12-20T10:10:30;100935.28;;;6.60;85.74
74778;BME280;63298;53.164;8.610;2023-12-20T10:13:12;100942.22;;;6.49;85.80
74778;BME280;63298;53.164;8.610;2023-12-20T10:15:41;100963.53;;;6.54;85.92
74778;BME280;63298;53.164;8.610;2023-12-20T10:18:15;100979.31;;;6.45;86.21
74778;BME280;63298;53.164;8.610;2023-12-20T10:20:44;100959.50;;;6.36;85.89
74778;BME280;63298;53.164;8.610;2023-12-20T10:23:13;100959.06;;;6.39;86.52
74778;BME280;63298;53.164;8.610;2023-12-20T10:26:01;100960.09;;;6.25;85.97
74778;BME280;63298;53.164;8.610;2023-12-20T10:28:34;100979.53;;;6.43;86.27
74778;BME280;63298;53.164;8.610;2023-12-20T10:31:34;100951.69;;;6.33;86.80
74778;BME280;63298;53.164;8.610;2023-12-20T10:34:01;100971.50;;;6.42;86.55
74778;BME280;63298;53.164;8.610;2023-12-20T10:36:35;100964.31;;;6.34;86.18
74778;BME280;63298;53.164;8.610;2023-12-20T10:39:11;100959.69;;;6.41;86.52
74778;BME280;63298;53.164;8.610;2023-12-20T10:42:01;100954.66;;;6.45;86.39
74778;BME280;63298;53.164;8.610;2023-12-20T10:44:33;100940.75;;;6.53;86.01
74778;BME280;63298;53.164;8.610;2023-12-20T10:47:05;100937.59;;;6.49;85.78
74778;BME280;63298;53.164;8.610;2023-12-20T10:50:03;100922.19;;;6.48;86.02
74778;BME280;63298;53.164;8.610;2023-12-20T10:52:38;100932.34;;;6.55;85.79
74778;BME280;63298;53.164;8.610;2023-12-20T10:55:11;100923.47;;;6.53;85.62
74778;BME280;63298;53.164;8.610;2023-12-20T10:57:36;100939.09;;;6.65;85.13
74778;BME280;63298;53.164;8.610;2023-12-20T11:00:02;100929.19;;;6.64;85.19
74778;BME280;63298;53.164;8.610;2023-12-20T11:02:28;100946.91;;;6.68;85.14
74778;BME280;63298;53.164;8.610;2023-12-20T11:11:52;100950.50;;;6.75;85.03
74778;BME280;63298;53.164;8.610;2023-12-20T11:14:52;100918.84;;;6.60;84.50
74778;BME280;63298;53.164;8.610;2023-12-20T11:17:27;100937.81;;;6.61;84.37
74778;BME280;63298;53.164;8.610;2023-12-20T11:22:51;100928.13;;;6.59;84.71
74778;BME280;63298;53.164;8.610;2023-12-20T11:25:28;100937.00;;;6.74;84.30
74778;BME280;63298;53.164;8.610;2023-12-20T11:28:15;100908.31;;;6.70;84.47
74778;BME280;63298;53.164;8.610;2023-12-20T11:30:54;100898.59;;;6.67;84.24
74778;BME280;63298;53.164;8.610;2023-12-20T11:36:32;100919.47;;;6.81;83.63
74778;BME280;63298;53.164;8.610;2023-12-20T11:39:08;100924.34;;;6.79;83.80
74778;BME280;63298;53.164;8.610;2023-12-20T11:41:54;100920.97;;;6.84;83.64
74778;BME280;63298;53.164;8.610;2023-12-20T11:44:42;100923.94;;;6.76;83.85
74778;BME280;63298;53.164;8.610;2023-12-20T11:47:13;100901.16;;;6.69;84.23
74778;BME280;63298;53.164;8.610;2023-12-20T11:49:47;100918.03;;;6.85;84.20
74778;BME280;63298;53.164;8.610;2023-12-20T11:52:33;100913.38;;;6.79;83.82
74778;BME280;63298;53.164;8.610;2023-12-20T11:55:28;100923.94;;;6.96;83.94
74778;BME280;63298;53.164;8.610;2023-12-20T11:57:56;100925.59;;;7.03;83.80
74778;BME280;63298;53.164;8.610;2023-12-20T12:00:25;100922.25;;;6.94;83.72
74778;BME280;63298;53.164;8.610;2023-12-20T12:03:00;100927.72;;;7.14;83.80
74778;BME280;63298;53.164;8.610;2023-12-20T12:05:25;100935.72;;;7.09;83.76
74778;BME280;63298;53.164;8.610;2023-12-20T12:07:50;100924.31;;;7.06;83.66
74778;BME280;63298;53.164;8.610;2023-12-20T12:10:16;100926.88;;;7.07;83.70
74778;BME280;63298;53.164;8.610;2023-12-20T12:12:44;100914.63;;;7.03;84.26
74778;BME280;63298;53.164;8.610;2023-12-20T12:15:12;100909.56;;;7.13;84.32
74778;BME280;63298;53.164;8.610;2023-12-20T12:17:37;100924.53;;;7.17;84.43
74778;BME280;63298;53.164;8.610;2023-12-20T12:20:03;100939.09;;;7.24;84.80
74778;BME280;63298;53.164;8.610;2023-12-20T12:22:29;100931.28;;;7.21;84.31
74778;BME280;63298;53.164;8.610;2023-12-20T12:24:59;100924.97;;;7.14;84.73
74778;BME280;63298;53.164;8.610;2023-12-20T12:27:24;100918.44;;;7.15;84.23
74778;BME280;63298;53.164;8.610;2023-12-20T12:30:05;100923.91;;;7.15;84.29
74778;BME280;63298;53.164;8.610;2023-12-20T12:32:33;100907.47;;;7.09;83.92
74778;BME280;63298;53.164;8.610;2023-12-20T12:34:59;100908.06;;;7.11;84.02
74778;BME280;63298;53.164;8.610;2023-12-20T12:37:27;100926.63;;;7.22;83.36
74778;BME280;63298;53.164;8.610;2023-12-20T12:39:56;100928.13;;;7.24;83.62
74778;BME280;63298;53.164;8.610;2023-12-20T12:42:22;100927.47;;;7.29;83.39
74778;BME280;63298;53.164;8.610;2023-12-20T12:44:47;100935.91;;;7.27;83.16
74778;BME280;63298;53.164;8.610;2023-12-20T12:47:12;100929.78;;;7.25;83.29
74778;BME280;63298;53.164;8.610;2023-12-20T12:49:41;100926.44;;;7.23;83.35
74778;BME280;63298;53.164;8.610;2023-12-20T12:52:09;100934.47;;;7.25;83.36
74778;BME280;63298;53.164;8.610;2023-12-20T12:54:35;100936.31;;;7.31;83.64
74778;BME280;63298;53.164;8.610;2023-12-20T12:57:03;100928.94;;;7.31;83.59
74778;BME280;63298;53.164;8.610;2023-12-20T12:59:31;100924.31;;;7.25;83.32
74778;BME280;63298;53.164;8.610;2023-12-20T13:01:56;100934.88;;;7.35;82.89
74778;BME280;63298;53.164;8.610;2023-12-20T13:04:22;100925.34;;;7.31;82.93
74778;BME280;63298;53.164;8.610;2023-12-20T13:06:47;100914.63;;;7.29;82.51
74778;BME280;63298;53.164;8.610;2023-12-20T13:09:13;100919.00;;;7.30;82.55
74778;BME280;63298;53.164;8.610;2023-12-20T13:11:40;100915.47;;;7.23;82.58
74778;BME280;63298;53.164;8.610;2023-12-20T13:14:08;100916.91;;;7.26;82.03
74778;BME280;63298;53.164;8.610;2023-12-20T13:16:37;100910.63;;;7.19;81.61
74778;BME280;63298;53.164;8.610;2023-12-20T13:19:08;100893.91;;;7.20;82.23
74778;BME280;63298;53.164;8.610;2023-12-20T13:21:36;100906.19;;;7.24;82.64
74778;BME280;63298;53.164;8.610;2023-12-20T13:24:07;100919.25;;;7.29;82.28
74778;BME280;63298;53.164;8.610;2023-12-20T13:26:32;100927.25;;;7.30;81.73
74778;BME280;63298;53.164;8.610;2023-12-20T13:29:05;100923.28;;;7.20;81.53
74778;BME280;63298;53.164;8.610;2023-12-20T13:31:31;100904.06;;;7.13;82.02
74778;BME280;63298;53.164;8.610;2023-12-20T13:33:59;100910.22;;;7.15;81.98
74778;BME280;63298;53.164;8.610;2023-12-20T13:36:27;100919.69;;;7.19;82.06
74778;BME280;63298;53.164;8.610;2023-12-20T13:38:53;100909.13;;;7.16;82.20
74778;BME280;63298;53.164;8.610;2023-12-20T13:41:21;100913.56;;;7.17;81.78
74778;BME280;63298;53.164;8.610;2023-12-20T13:43:46;100914.19;;;7.13;82.34
74778;BME280;63298;53.164;8.610;2023-12-20T13:46:12;100904.50;;;7.10;82.20
74778;BME280;63298;53.164;8.610;2023-12-20T13:48:43;100923.91;;;7.22;82.01
74778;BME280;63298;53.164;8.610;2023-12-20T13:51:08;100921.34;;;7.20;82.17
74778;BME280;63298;53.164;8.610;2023-12-20T13:53:36;100913.34;;;7.12;82.39
74778;BME280;63298;53.164;8.610;2023-12-20T13:56:05;100917.16;;;7.11;82.51
74778;BME280;63298;53.164;8.610;2023-12-20T13:58:30;100924.09;;;7.20;82.63
74778;BME280;63298;53.164;8.610;2023-12-20T14:00:56;100911.66;;;7.11;82.75
74778;BME280;63298;53.164;8.610;2023-12-20T14:03:23;100910.22;;;7.15;83.11
74778;BME280;63298;53.164;8.610;2023-12-20T14:05:49;100909.13;;;7.16;82.73
74778;BME280;63298;53.164;8.610;2023-12-20T14:08:17;100907.03;;;7.12;82.96
74778;BME280;63298;53.164;8.610;2023-12-20T14:10:45;100903.66;;;7.10;82.96
74778;BME280;63298;53.164;8.610;2023-12-20T14:13:10;100901.97;;;7.09;82.66
74778;BME280;63298;53.164;8.610;2023-12-20T14:15:39;100903.44;;;7.11;83.11
74778;BME280;63298;53.164;8.610;2023-12-20T14:18:05;100899.63;;;7.12;82.67
74778;BME280;63298;53.164;8.610;2023-12-20T14:20:34;100895.84;;;7.13;82.67
74778;BME280;63298;53.164;8.610;2023-12-20T14:23:08;100888.06;;;7.10;82.12
74778;BME280;63298;53.164;8.610;2023-12-20T14:25:33;100876.44;;;7.02;82.45
74778;BME280;63298;53.164;8.610;2023-12-20T14:27:58;100883.81;;;7.08;82.40
74778;BME280;63298;53.164;8.610;2023-12-20T14:30:24;100882.13;;;7.07;81.95
74778;BME280;63298;53.164;8.610;2023-12-20T14:32:49;100901.75;;;6.97;82.03
74778;BME280;63298;53.164;8.610;2023-12-20T14:35:14;100904.31;;;6.99;82.33
74778;BME280;63298;53.164;8.610;2023-12-20T14:37:40;100889.53;;;6.93;81.85
74778;BME280;63298;53.164;8.610;2023-12-20T14:40:09;100891.00;;;7.02;81.90
74778;BME280;63298;53.164;8.610;2023-12-20T14:42:35;100897.97;;;7.05;81.76
74778;BME280;63298;53.164;8.610;2023-12-20T14:45:03;100903.88;;;7.08;81.81
74778;BME280;63298;53.164;8.610;2023-12-20T14:47:35;100894.78;;;7.01;81.81
74778;BME280;63298;53.164;8.610;2023-12-20T14:50:05;100891.00;;;7.02;81.70
74778;BME280;63298;53.164;8.610;2023-12-20T14:52:31;100898.59;;;7.07;81.72
74778;BME280;63298;53.164;8.610;2023-12-20T14:54:58;100903.22;;;7.06;81.77
74778;BME280;63298;53.164;8.610;2023-12-20T14:57:23;100902.38;;;7.06;81.97
74778;BME280;63298;53.164;8.610;2023-12-20T14:59:48;100905.97;;;7.13;81.99
74778;BME280;63298;53.164;8.610;2023-12-20T15:02:14;100899.84;;;7.11;81.63
74778;BME280;63298;53.164;8.610;2023-12-20T15:04:39;100889.09;;;7.03;81.84
74778;BME280;63298;53.164;8.610;2023-12-20T15:07:07;100892.69;;;7.03;81.15
74778;BME280;63298;53.164;8.610;2023-12-20T15:09:33;100902.81;;;7.09;81.69
74778;BME280;63298;53.164;8.610;2023-12-20T15:12:01;100914.00;;;7.01;81.80
74778;BME280;63298;53.164;8.610;2023-12-20T15:14:26;100907.47;;;7.02;81.57
74778;BME280;63298;53.164;8.610;2023-12-20T15:16:55;100903.25;;;7.00;81.43
74778;BME280;63298;53.164;8.610;2023-12-20T15:19:20;100907.03;;;6.99;82.32
74778;BME280;63298;53.164;8.610;2023-12-20T15:21:45;100902.41;;;6.99;82.27
74778;BME280;63298;53.164;8.610;2023-12-20T15:24:11;100897.31;;;6.96;82.37
74778;BME280;63298;53.164;8.610;2023-12-20T15:26:38;100906.84;;;7.00;82.80
74778;BME280;63298;53.164;8.610;2023-12-20T15:29:03;100892.94;;;6.95;82.99
74778;BME280;63298;53.164;8.610;2023-12-20T15:31:28;100892.06;;;7.01;82.61
74778;BME280;63298;53.164;8.610;2023-12-20T15:33:54;100895.00;;;7.06;82.93
74778;BME280;63298;53.164;8.610;2023-12-20T15:36:20;100887.44;;;6.95;83.59
74778;BME280;63298;53.164;8.610;2023-12-20T15:38:45;100900.06;;;6.96;83.09
74778;BME280;63298;53.164;8.610;2023-12-20T15:41:20;100897.13;;;6.91;82.95
74778;BME280;63298;53.164;8.610;2023-12-20T15:43:46;100896.91;;;6.92;83.04
74778;BME280;63298;53.164;8.610;2023-12-20T15:46:11;100894.63;;;6.89;83.27
74778;BME280;63298;53.164;8.610;2023-12-20T15:48:36;100882.16;;;6.87;83.00
74778;BME280;63298;53.164;8.610;2023-12-20T15:51:06;100887.22;;;6.90;83.34
74778;BME280;63298;53.164;8.610;2023-12-20T15:53:31;100900.72;;;6.91;83.86
74778;BME280;63298;53.164;8.610;2023-12-20T15:55:56;100903.25;;;6.93;83.70
74778;BME280;63298;53.164;8.610;2023-12-20T15:58:22;100891.88;;;6.89;84.29
74778;BME280;63298;53.164;8.610;2023-12-20T16:01:01;100899.88;;;6.84;84.43
74778;BME280;63298;53.164;8.610;2023-12-20T16:03:29;100890.16;;;6.82;85.54
74778;BME280;63298;53.164;8.610;2023-12-20T16:06:01;100884.28;;;6.78;84.81
74778;BME280;63298;53.164;8.610;2023-12-20T16:08:38;100874.16;;;6.66;85.25
74778;BME280;63298;53.164;8.610;2023-12-20T16:11:38;100871.63;;;6.58;85.75
74778;BME280;63298;53.164;8.610;2023-12-20T16:14:11;100883.22;;;6.60;85.14
74778;BME280;63298;53.164;8.610;2023-12-20T16:20:07;100910.44;;;6.74;85.24
74778;BME280;63298;53.164;8.610;2023-12-20T16:22:51;100897.97;;;6.59;85.50
74778;BME280;63298;53.164;8.610;2023-12-20T16:25:28;100881.31;;;6.47;85.73
74778;BME280;63298;53.164;8.610;2023-12-20T16:28:29;100918.22;;;6.64;85.84
74778;BME280;63298;53.164;8.610;2023-12-20T16:34:36;100909.16;;;6.64;84.91
74778;BME280;63298;53.164;8.610;2023-12-20T16:43:42;100892.06;;;6.55;84.54
74778;BME280;63298;53.164;8.610;2023-12-20T16:48:55;100896.28;;;6.44;85.51
74778;BME280;63298;53.164;8.610;2023-12-20T16:51:25;100876.88;;;6.39;84.96
74778;BME280;63298;53.164;8.610;2023-12-20T16:53:51;100881.75;;;6.50;84.67